sensor_id;sensor_type;location;lat;lon;timestamp;P1;durP1;ratioP1;P2;durP2;ratioP2
48911;SDS011;34722;52.108;5.044;2022-09-29T00:02:06;16.63;;;10.48;;
48911;SDS011;34722;52.108;5.044;2022-09-29T00:04:32;14.05;;;8.85;;
48911;SDS011;34722;52.108;5.044;2022-09-29T00:06:58;17.80;;;9.95;;
48911;SDS011;34722;52.108;5.044;2022-09-29T00:09:23;16.63;;;10.05;;
48911;SDS011;34722;52.108;5.044;2022-09-29T00:11:52;15.55;;;9.52;;
48911;SDS011;34722;52.108;5.044;2022-09-29T00:14:20;14.32;;;9.63;;
48911;SDS011;34722;52.108;5.044;2022-09-29T00:16:47;14.85;;;10.25;;
48911;SDS011;34722;52.108;5.044;2022-09-29T00:19:13;24.10;;;12.35;;
48911;SDS011;34722;52.108;5.044;2022-09-29T00:21:39;20.52;;;11.43;;
48911;SDS011;34722;52.108;5.044;2022-09-29T00:24:05;16.88;;;10.93;;
48911;SDS011;34722;52.108;5.044;2022-09-29T00:26:30;22.17;;;11.18;;
48911;SDS011;34722;52.108;5.044;2022-09-29T00:28:57;16.67;;;10.68;;
48911;SDS011;34722;52.108;5.044;2022-09-29T00:31:24;19.25;;;11.50;;
48911;SDS011;34722;52.108;5.044;2022-09-29T00:33:52;16.13;;;11.07;;
48911;SDS011;34722;52.108;5.044;2022-09-29T00:36:18;19.83;;;11.40;;
48911;SDS011;34722;52.108;5.044;2022-09-29T00:38:45;17.38;;;12.18;;
48911;SDS011;34722;52.108;5.044;2022-09-29T00:41:14;17.48;;;11.80;;
48911;SDS011;34722;52.108;5.044;2022-09-29T00:48:54;19.95;;;13.40;;
48911;SDS011;34722;52.108;5.044;2022-09-29T00:51:26;22.48;;;13.38;;
48911;SDS011;34722;52.108;5.044;2022-09-29T00:53:54;19.45;;;12.77;;
48911;SDS011;34722;52.108;5.044;2022-09-29T00:56:20;23.63;;;12.65;;
48911;SDS011;34722;52.108;5.044;2022-09-29T00:58:51;19.65;;;11.88;;
48911;SDS011;34722;52.108;5.044;2022-09-29T01:01:24;21.52;;;12.35;;
48911;SDS011;34722;52.108;5.044;2022-09-29T01:03:54;21.88;;;12.02;;
48911;SDS011;34722;52.108;5.044;2022-09-29T01:06:26;17.53;;;12.10;;
48911;SDS011;34722;52.108;5.044;2022-09-29T01:09:02;21.58;;;13.43;;
48911;SDS011;34722;52.108;5.044;2022-09-29T01:11:31;20.73;;;13.02;;
48911;SDS011;34722;52.108;5.044;2022-09-29T01:14:01;31.60;;;14.07;;
48911;SDS011;34722;52.108;5.044;2022-09-29T01:16:30;25.08;;;12.52;;
48911;SDS011;34722;52.108;5.044;2022-09-29T01:18:57;25.25;;;14.52;;
48911;SDS011;34722;52.108;5.044;2022-09-29T01:29:42;28.33;;;17.52;;
48911;SDS011;34722;52.108;5.044;2022-09-29T01:38:23;30.80;;;17.52;;
48911;SDS011;34722;52.108;5.044;2022-09-29T01:46:27;28.33;;;17.40;;
48911;SDS011;34722;52.108;5.044;2022-09-29T01:48:57;25.50;;;16.52;;
48911;SDS011;34722;52.108;5.044;2022-09-29T01:52:08;27.92;;;17.80;;
48911;SDS011;34722;52.108;5.044;2022-09-29T01:54:20;26.65;;;17.23;;
48911;SDS011;34722;52.108;5.044;2022-09-29T01:56:57;34.28;;;18.73;;
48911;SDS011;34722;52.108;5.044;2022-09-29T02:02:43;34.95;;;18.05;;
48911;SDS011;34722;52.108;5.044;2022-09-29T02:05:17;33.78;;;20.00;;
48911;SDS011;34722;52.108;5.044;2022-09-29T02:07:52;36.47;;;19.73;;
48911;SDS011;34722;52.108;5.044;2022-09-29T02:10:27;36.90;;;20.27;;
48911;SDS011;34722;52.108;5.044;2022-09-29T02:12:57;33.17;;;18.52;;
48911;SDS011;34722;52.108;5.044;2022-09-29T02:15:31;33.42;;;19.00;;
48911;SDS011;34722;52.108;5.044;2022-09-29T02:18:04;40.92;;;20.92;;
48911;SDS011;34722;52.108;5.044;2022-09-29T02:22:59;33.55;;;19.80;;
48911;SDS011;34722;52.108;5.044;2022-09-29T02:25:25;42.13;;;21.75;;
48911;SDS011;34722;52.108;5.044;2022-09-29T02:27:51;33.38;;;18.65;;
48911;SDS011;34722;52.108;5.044;2022-09-29T02:30:17;34.88;;;18.67;;
48911;SDS011;34722;52.108;5.044;2022-09-29T02:32:45;33.05;;;20.27;;
48911;SDS011;34722;52.108;5.044;2022-09-29T02:35:11;34.05;;;20.73;;
48911;SDS011;34722;52.108;5.044;2022-09-29T02:48:57;32.28;;;18.67;;
48911;SDS011;34722;52.108;5.044;2022-09-29T02:52:13;36.20;;;18.80;;
48911;SDS011;34722;52.108;5.044;2022-09-29T02:57:45;41.83;;;21.15;;
48911;SDS011;34722;52.108;5.044;2022-09-29T03:00:20;43.03;;;23.50;;
48911;SDS011;34722;52.108;5.044;2022-09-29T03:02:47;43.60;;;24.85;;
48911;SDS011;34722;52.108;5.044;2022-09-29T03:05:17;50.75;;;24.63;;
48911;SDS011;34722;52.108;5.044;2022-09-29T03:07:44;44.03;;;23.40;;
48911;SDS011;34722;52.108;5.044;2022-09-29T03:10:11;47.50;;;25.23;;
48911;SDS011;34722;52.108;5.044;2022-09-29T03:12:37;45.40;;;22.75;;
48911;SDS011;34722;52.108;5.044;2022-09-29T03:15:04;49.08;;;25.00;;
48911;SDS011;34722;52.108;5.044;2022-09-29T03:17:31;52.08;;;26.33;;
48911;SDS011;34722;52.108;5.044;2022-09-29T03:19:57;46.70;;;24.83;;
48911;SDS011;34722;52.108;5.044;2022-09-29T03:22:23;47.33;;;25.13;;
48911;SDS011;34722;52.108;5.044;2022-09-29T03:24:49;49.00;;;24.40;;
48911;SDS011;34722;52.108;5.044;2022-09-29T03:27:14;43.50;;;22.98;;
48911;SDS011;34722;52.108;5.044;2022-09-29T03:29:40;43.95;;;22.13;;
48911;SDS011;34722;52.108;5.044;2022-09-29T03:32:06;38.65;;;21.25;;
48911;SDS011;34722;52.108;5.044;2022-09-29T03:34:32;40.88;;;21.75;;
48911;SDS011;34722;52.108;5.044;2022-09-29T03:36:58;39.88;;;21.80;;
48911;SDS011;34722;52.108;5.044;2022-09-29T03:39:24;39.92;;;21.02;;
48911;SDS011;34722;52.108;5.044;2022-09-29T03:41:50;37.85;;;20.92;;
48911;SDS011;34722;52.108;5.044;2022-09-29T03:44:16;38.50;;;21.60;;
48911;SDS011;34722;52.108;5.044;2022-09-29T03:46:42;42.65;;;23.20;;
48911;SDS011;34722;52.108;5.044;2022-09-29T03:49:12;39.97;;;20.90;;
48911;SDS011;34722;52.108;5.044;2022-09-29T03:51:39;35.40;;;21.15;;
48911;SDS011;34722;52.108;5.044;2022-09-29T03:54:05;42.30;;;22.58;;
48911;SDS011;34722;52.108;5.044;2022-09-29T03:56:31;47.95;;;24.73;;
48911;SDS011;34722;52.108;5.044;2022-09-29T03:58:57;40.30;;;22.88;;
48911;SDS011;34722;52.108;5.044;2022-09-29T04:01:23;43.92;;;23.00;;
48911;SDS011;34722;52.108;5.044;2022-09-29T04:03:49;38.88;;;21.90;;
48911;SDS011;34722;52.108;5.044;2022-09-29T04:06:14;41.97;;;22.02;;
48911;SDS011;34722;52.108;5.044;2022-09-29T04:08:40;37.20;;;21.70;;
48911;SDS011;34722;52.108;5.044;2022-09-29T04:11:06;40.30;;;21.75;;
48911;SDS011;34722;52.108;5.044;2022-09-29T04:13:32;46.08;;;24.17;;
48911;SDS011;34722;52.108;5.044;2022-09-29T04:15:58;44.63;;;23.55;;
48911;SDS011;34722;52.108;5.044;2022-09-29T04:18:28;43.30;;;23.88;;
48911;SDS011;34722;52.108;5.044;2022-09-29T04:20:54;45.80;;;25.77;;
48911;SDS011;34722;52.108;5.044;2022-09-29T04:23:27;42.35;;;23.10;;
48911;SDS011;34722;52.108;5.044;2022-09-29T04:25:55;42.75;;;24.35;;
48911;SDS011;34722;52.108;5.044;2022-09-29T04:28:22;42.70;;;21.35;;
48911;SDS011;34722;52.108;5.044;2022-09-29T04:30:48;36.95;;;21.45;;
48911;SDS011;34722;52.108;5.044;2022-09-29T04:33:14;40.45;;;21.98;;
48911;SDS011;34722;52.108;5.044;2022-09-29T04:35:40;33.97;;;20.77;;
48911;SDS011;34722;52.108;5.044;2022-09-29T04:38:06;39.85;;;22.23;;
48911;SDS011;34722;52.108;5.044;2022-09-29T04:40:33;39.67;;;22.95;;
48911;SDS011;34722;52.108;5.044;2022-09-29T04:42:59;42.58;;;22.25;;
48911;SDS011;34722;52.108;5.044;2022-09-29T04:45:25;47.88;;;23.48;;
48911;SDS011;34722;52.108;5.044;2022-09-29T04:47:51;48.10;;;23.85;;
48911;SDS011;34722;52.108;5.044;2022-09-29T04:50:17;44.63;;;24.58;;
48911;SDS011;34722;52.108;5.044;2022-09-29T04:52:43;39.78;;;21.75;;
48911;SDS011;34722;52.108;5.044;2022-09-29T04:55:09;39.22;;;22.30;;
48911;SDS011;34722;52.108;5.044;2022-09-29T04:57:39;38.15;;;22.60;;
48911;SDS011;34722;52.108;5.044;2022-09-29T05:00:06;38.92;;;21.50;;
48911;SDS011;34722;52.108;5.044;2022-09-29T05:02:33;36.95;;;22.48;;
48911;SDS011;34722;52.108;5.044;2022-09-29T05:04:59;39.38;;;22.05;;
48911;SDS011;34722;52.108;5.044;2022-09-29T05:07:26;42.10;;;21.48;;
48911;SDS011;34722;52.108;5.044;2022-09-29T05:09:52;37.55;;;22.02;;
48911;SDS011;34722;52.108;5.044;2022-09-29T05:12:18;47.80;;;23.13;;
48911;SDS011;34722;52.108;5.044;2022-09-29T05:14:45;44.00;;;24.00;;
48911;SDS011;34722;52.108;5.044;2022-09-29T05:17:14;47.17;;;25.00;;
48911;SDS011;34722;52.108;5.044;2022-09-29T05:19:40;47.58;;;26.35;;
48911;SDS011;34722;52.108;5.044;2022-09-29T05:22:06;52.58;;;25.77;;
48911;SDS011;34722;52.108;5.044;2022-09-29T05:24:32;50.92;;;26.20;;
48911;SDS011;34722;52.108;5.044;2022-09-29T05:26:58;48.88;;;25.65;;
48911;SDS011;34722;52.108;5.044;2022-09-29T05:29:23;51.63;;;26.30;;
48911;SDS011;34722;52.108;5.044;2022-09-29T05:31:50;47.45;;;26.20;;
48911;SDS011;34722;52.108;5.044;2022-09-29T05:34:15;45.38;;;24.92;;
48911;SDS011;34722;52.108;5.044;2022-09-29T05:36:41;45.88;;;24.30;;
48911;SDS011;34722;52.108;5.044;2022-09-29T05:39:07;48.72;;;27.33;;
48911;SDS011;34722;52.108;5.044;2022-09-29T05:41:33;56.92;;;27.52;;
48911;SDS011;34722;52.108;5.044;2022-09-29T05:43:59;45.10;;;24.27;;
48911;SDS011;34722;52.108;5.044;2022-09-29T05:46:25;51.55;;;26.83;;
48911;SDS011;34722;52.108;5.044;2022-09-29T05:48:51;55.13;;;27.20;;
48911;SDS011;34722;52.108;5.044;2022-09-29T05:51:19;52.42;;;27.25;;
48911;SDS011;34722;52.108;5.044;2022-09-29T05:53:47;48.33;;;27.10;;
48911;SDS011;34722;52.108;5.044;2022-09-29T05:56:14;49.92;;;25.77;;
48911;SDS011;34722;52.108;5.044;2022-09-29T05:58:43;49.78;;;27.30;;
48911;SDS011;34722;52.108;5.044;2022-09-29T06:01:10;51.10;;;26.90;;
48911;SDS011;34722;52.108;5.044;2022-09-29T06:03:38;50.08;;;26.85;;
48911;SDS011;34722;52.108;5.044;2022-09-29T06:08:31;53.88;;;29.10;;
48911;SDS011;34722;52.108;5.044;2022-09-29T06:11:02;55.28;;;30.00;;
48911;SDS011;34722;52.108;5.044;2022-09-29T06:13:29;59.97;;;28.45;;
48911;SDS011;34722;52.108;5.044;2022-09-29T06:15:56;57.42;;;31.35;;
48911;SDS011;34722;52.108;5.044;2022-09-29T06:18:23;57.65;;;30.23;;
48911;SDS011;34722;52.108;5.044;2022-09-29T06:20:49;62.38;;;31.75;;
48911;SDS011;34722;52.108;5.044;2022-09-29T06:23:15;64.57;;;32.40;;
48911;SDS011;34722;52.108;5.044;2022-09-29T06:25:41;65.55;;;34.65;;
48911;SDS011;34722;52.108;5.044;2022-09-29T06:28:07;68.78;;;33.72;;
48911;SDS011;34722;52.108;5.044;2022-09-29T06:30:32;67.30;;;33.85;;
48911;SDS011;34722;52.108;5.044;2022-09-29T06:32:58;127.72;;;38.88;;
48911;SDS011;34722;52.108;5.044;2022-09-29T06:35:24;84.85;;;40.53;;
48911;SDS011;34722;52.108;5.044;2022-09-29T06:38:11;39.47;;;25.95;;
48911;SDS011;34722;52.108;5.044;2022-09-29T06:40:37;32.83;;;21.58;;
48911;SDS011;34722;52.108;5.044;2022-09-29T06:43:04;28.13;;;18.70;;
48911;SDS011;34722;52.108;5.044;2022-09-29T06:45:30;24.98;;;16.55;;
48911;SDS011;34722;52.108;5.044;2022-09-29T06:47:57;24.77;;;15.05;;
48911;SDS011;34722;52.108;5.044;2022-09-29T06:50:24;23.27;;;15.10;;
48911;SDS011;34722;52.108;5.044;2022-09-29T06:52:49;22.30;;;13.85;;
48911;SDS011;34722;52.108;5.044;2022-09-29T06:55:15;19.17;;;13.57;;
48911;SDS011;34722;52.108;5.044;2022-09-29T06:57:41;17.30;;;12.57;;
48911;SDS011;34722;52.108;5.044;2022-09-29T07:00:09;20.80;;;12.93;;
48911;SDS011;34722;52.108;5.044;2022-09-29T07:02:35;14.02;;;11.85;;
48911;SDS011;34722;52.108;5.044;2022-09-29T07:05:02;15.57;;;11.48;;
48911;SDS011;34722;52.108;5.044;2022-09-29T07:07:28;15.25;;;11.85;;
48911;SDS011;34722;52.108;5.044;2022-09-29T07:09:54;13.02;;;11.30;;
48911;SDS011;34722;52.108;5.044;2022-09-29T07:12:20;15.70;;;12.25;;
48911;SDS011;34722;52.108;5.044;2022-09-29T07:14:46;17.20;;;11.82;;
48911;SDS011;34722;52.108;5.044;2022-09-29T07:17:12;13.93;;;11.85;;
48911;SDS011;34722;52.108;5.044;2022-09-29T07:19:38;13.30;;;11.75;;
48911;SDS011;34722;52.108;5.044;2022-09-29T07:22:10;15.60;;;11.75;;
48911;SDS011;34722;52.108;5.044;2022-09-29T07:24:36;17.80;;;12.70;;
48911;SDS011;34722;52.108;5.044;2022-09-29T07:27:02;15.68;;;13.38;;
48911;SDS011;34722;52.108;5.044;2022-09-29T07:29:28;14.65;;;12.82;;
48911;SDS011;34722;52.108;5.044;2022-09-29T07:31:59;17.25;;;12.43;;
48911;SDS011;34722;52.108;5.044;2022-09-29T07:34:25;14.27;;;11.73;;
48911;SDS011;34722;52.108;5.044;2022-09-29T07:36:51;13.13;;;11.82;;
48911;SDS011;34722;52.108;5.044;2022-09-29T07:39:18;13.57;;;12.18;;
48911;SDS011;34722;52.108;5.044;2022-09-29T07:41:45;16.30;;;12.40;;
48911;SDS011;34722;52.108;5.044;2022-09-29T07:44:11;13.15;;;11.48;;
48911;SDS011;34722;52.108;5.044;2022-09-29T07:46:36;13.70;;;12.32;;
48911;SDS011;34722;52.108;5.044;2022-09-29T07:49:02;15.48;;;12.57;;
48911;SDS011;34722;52.108;5.044;2022-09-29T07:51:36;14.63;;;13.23;;
48911;SDS011;34722;52.108;5.044;2022-09-29T07:56:30;12.73;;;11.55;;
48911;SDS011;34722;52.108;5.044;2022-09-29T07:58:59;14.30;;;12.32;;
48911;SDS011;34722;52.108;5.044;2022-09-29T08:01:26;13.15;;;11.90;;
48911;SDS011;34722;52.108;5.044;2022-09-29T08:03:56;13.82;;;12.52;;
48911;SDS011;34722;52.108;5.044;2022-09-29T08:06:22;13.55;;;12.30;;
48911;SDS011;34722;52.108;5.044;2022-09-29T08:08:50;14.30;;;12.80;;
48911;SDS011;34722;52.108;5.044;2022-09-29T08:11:17;13.70;;;11.82;;
48911;SDS011;34722;52.108;5.044;2022-09-29T08:13:47;14.15;;;12.75;;
48911;SDS011;34722;52.108;5.044;2022-09-29T08:16:15;14.93;;;13.32;;
48911;SDS011;34722;52.108;5.044;2022-09-29T08:18:41;13.82;;;12.38;;
48911;SDS011;34722;52.108;5.044;2022-09-29T08:21:09;15.40;;;13.95;;
48911;SDS011;34722;52.108;5.044;2022-09-29T08:23:40;15.27;;;13.70;;
48911;SDS011;34722;52.108;5.044;2022-09-29T08:26:08;15.10;;;13.27;;
48911;SDS011;34722;52.108;5.044;2022-09-29T08:28:36;16.13;;;14.50;;
48911;SDS011;34722;52.108;5.044;2022-09-29T08:31:03;15.43;;;13.88;;
48911;SDS011;34722;52.108;5.044;2022-09-29T08:33:32;16.77;;;15.23;;
48911;SDS011;34722;52.108;5.044;2022-09-29T08:35:59;16.15;;;14.52;;
48911;SDS011;34722;52.108;5.044;2022-09-29T08:38:27;15.57;;;13.95;;
48911;SDS011;34722;52.108;5.044;2022-09-29T08:40:54;15.88;;;14.15;;
48911;SDS011;34722;52.108;5.044;2022-09-29T08:43:26;17.40;;;15.63;;
48911;SDS011;34722;52.108;5.044;2022-09-29T08:46:32;16.67;;;14.80;;
48911;SDS011;34722;52.108;5.044;2022-09-29T08:49:05;15.05;;;13.63;;
48911;SDS011;34722;52.108;5.044;2022-09-29T08:51:54;17.05;;;14.30;;
48911;SDS011;34722;52.108;5.044;2022-09-29T08:56:58;16.60;;;15.00;;
48911;SDS011;34722;52.108;5.044;2022-09-29T08:59:26;15.88;;;14.48;;
48911;SDS011;34722;52.108;5.044;2022-09-29T09:13:27;16.50;;;14.90;;
48911;SDS011;34722;52.108;5.044;2022-09-29T09:16:12;14.90;;;13.43;;
48911;SDS011;34722;52.108;5.044;2022-09-29T09:24:45;15.95;;;14.32;;
48911;SDS011;34722;52.108;5.044;2022-09-29T09:27:13;15.60;;;14.05;;
48911;SDS011;34722;52.108;5.044;2022-09-29T09:29:42;15.15;;;13.65;;
48911;SDS011;34722;52.108;5.044;2022-09-29T09:32:11;15.68;;;14.10;;
48911;SDS011;34722;52.108;5.044;2022-09-29T09:34:59;14.27;;;12.48;;
48911;SDS011;34722;52.108;5.044;2022-09-29T09:37:37;10.77;;;9.77;;
48911;SDS011;34722;52.108;5.044;2022-09-29T09:45:45;9.95;;;9.05;;
48911;SDS011;34722;52.108;5.044;2022-09-29T09:48:18;10.50;;;9.63;;
48911;SDS011;34722;52.108;5.044;2022-09-29T09:50:44;9.88;;;8.95;;
48911;SDS011;34722;52.108;5.044;2022-09-29T09:53:35;10.20;;;9.18;;
48911;SDS011;34722;52.108;5.044;2022-09-29T10:01:50;8.95;;;8.15;;
48911;SDS011;34722;52.108;5.044;2022-09-29T10:04:19;10.13;;;9.20;;
48911;SDS011;34722;52.108;5.044;2022-09-29T10:06:51;10.43;;;9.20;;
48911;SDS011;34722;52.108;5.044;2022-09-29T10:09:17;10.73;;;8.95;;
48911;SDS011;34722;52.108;5.044;2022-09-29T10:11:43;10.95;;;9.95;;
48911;SDS011;34722;52.108;5.044;2022-09-29T10:14:18;10.45;;;9.45;;
48911;SDS011;34722;52.108;5.044;2022-09-29T10:19:52;10.90;;;9.90;;
48911;SDS011;34722;52.108;5.044;2022-09-29T10:22:26;9.60;;;8.60;;
48911;SDS011;34722;52.108;5.044;2022-09-29T10:25:14;9.98;;;9.05;;
48911;SDS011;34722;52.108;5.044;2022-09-29T10:28:11;8.60;;;7.90;;
48911;SDS011;34722;52.108;5.044;2022-09-29T10:30:41;9.02;;;8.10;;
48911;SDS011;34722;52.108;5.044;2022-09-29T10:33:10;8.52;;;7.72;;
48911;SDS011;34722;52.108;5.044;2022-09-29T10:35:41;8.38;;;7.57;;
48911;SDS011;34722;52.108;5.044;2022-09-29T10:38:15;12.80;;;10.00;;
48911;SDS011;34722;52.108;5.044;2022-09-29T10:41:06;10.30;;;9.30;;
48911;SDS011;34722;52.108;5.044;2022-09-29T10:43:38;8.55;;;7.65;;
48911;SDS011;34722;52.108;5.044;2022-09-29T10:46:05;8.20;;;7.50;;
48911;SDS011;34722;52.108;5.044;2022-09-29T10:52:05;10.63;;;9.52;;
48911;SDS011;34722;52.108;5.044;2022-09-29T10:54:53;10.32;;;9.38;;
48911;SDS011;34722;52.108;5.044;2022-09-29T10:57:24;9.02;;;8.23;;
48911;SDS011;34722;52.108;5.044;2022-09-29T10:59:55;9.40;;;8.43;;
48911;SDS011;34722;52.108;5.044;2022-09-29T11:02:24;12.40;;;9.45;;
48911;SDS011;34722;52.108;5.044;2022-09-29T11:04:52;9.02;;;8.13;;
48911;SDS011;34722;52.108;5.044;2022-09-29T11:07:19;9.48;;;8.40;;
48911;SDS011;34722;52.108;5.044;2022-09-29T11:09:45;9.43;;;8.18;;
48911;SDS011;34722;52.108;5.044;2022-09-29T11:15:23;8.63;;;7.72;;
48911;SDS011;34722;52.108;5.044;2022-09-29T11:17:51;8.63;;;7.82;;
48911;SDS011;34722;52.108;5.044;2022-09-29T11:20:18;8.70;;;6.93;;
48911;SDS011;34722;52.108;5.044;2022-09-29T11:39:27;7.38;;;6.75;;
48911;SDS011;34722;52.108;5.044;2022-09-29T11:44:54;12.70;;;6.55;;
48911;SDS011;34722;52.108;5.044;2022-09-29T11:53:48;8.27;;;7.13;;
48911;SDS011;34722;52.108;5.044;2022-09-29T11:56:23;9.70;;;6.85;;
48911;SDS011;34722;52.108;5.044;2022-09-29T12:05:21;8.02;;;6.40;;
48911;SDS011;34722;52.108;5.044;2022-09-29T12:16:07;6.45;;;5.85;;
48911;SDS011;34722;52.108;5.044;2022-09-29T12:18:46;6.25;;;5.00;;
48911;SDS011;34722;52.108;5.044;2022-09-29T12:21:16;7.38;;;6.03;;
48911;SDS011;34722;52.108;5.044;2022-09-29T12:23:56;4.82;;;4.28;;
48911;SDS011;34722;52.108;5.044;2022-09-29T12:26:25;5.22;;;4.72;;
48911;SDS011;34722;52.108;5.044;2022-09-29T12:28:56;6.57;;;5.20;;
48911;SDS011;34722;52.108;5.044;2022-09-29T12:36:44;8.15;;;6.47;;
48911;SDS011;34722;52.108;5.044;2022-09-29T12:39:52;7.40;;;5.10;;
48911;SDS011;34722;52.108;5.044;2022-09-29T12:53:06;8.70;;;5.53;;
48911;SDS011;34722;52.108;5.044;2022-09-29T12:55:49;5.95;;;4.72;;
48911;SDS011;34722;52.108;5.044;2022-09-29T13:01:02;6.85;;;4.60;;
48911;SDS011;34722;52.108;5.044;2022-09-29T13:06:28;5.80;;;3.90;;
48911;SDS011;34722;52.108;5.044;2022-09-29T13:09:16;12.23;;;4.47;;
48911;SDS011;34722;52.108;5.044;2022-09-29T13:11:51;9.85;;;4.22;;
48911;SDS011;34722;52.108;5.044;2022-09-29T13:14:33;9.45;;;5.03;;
48911;SDS011;34722;52.108;5.044;2022-09-29T13:23:04;9.48;;;5.30;;
48911;SDS011;34722;52.108;5.044;2022-09-29T13:28:37;8.52;;;4.78;;
48911;SDS011;34722;52.108;5.044;2022-09-29T13:31:15;6.03;;;4.87;;
48911;SDS011;34722;52.108;5.044;2022-09-29T13:33:46;8.45;;;5.32;;
48911;SDS011;34722;52.108;5.044;2022-09-29T13:36:24;5.30;;;4.00;;
48911;SDS011;34722;52.108;5.044;2022-09-29T13:38:57;6.60;;;3.83;;
48911;SDS011;34722;52.108;5.044;2022-09-29T13:54:41;6.10;;;3.97;;
48911;SDS011;34722;52.108;5.044;2022-09-29T14:02:26;5.65;;;4.65;;
48911;SDS011;34722;52.108;5.044;2022-09-29T14:12:55;5.65;;;4.40;;
48911;SDS011;34722;52.108;5.044;2022-09-29T14:15:30;5.22;;;4.03;;
48911;SDS011;34722;52.108;5.044;2022-09-29T14:18:01;5.97;;;3.95;;
48911;SDS011;34722;52.108;5.044;2022-09-29T14:20:32;5.85;;;3.50;;
48911;SDS011;34722;52.108;5.044;2022-09-29T14:23:34;4.72;;;3.85;;
48911;SDS011;34722;52.108;5.044;2022-09-29T14:29:17;7.78;;;3.47;;
48911;SDS011;34722;52.108;5.044;2022-09-29T14:32:13;5.60;;;3.03;;
48911;SDS011;34722;52.108;5.044;2022-09-29T14:34:46;4.30;;;3.13;;
48911;SDS011;34722;52.108;5.044;2022-09-29T14:37:18;2.70;;;2.45;;
48911;SDS011;34722;52.108;5.044;2022-09-29T14:39:48;5.15;;;3.00;;
48911;SDS011;34722;52.108;5.044;2022-09-29T14:42:34;4.10;;;3.40;;
48911;SDS011;34722;52.108;5.044;2022-09-29T14:45:00;5.57;;;3.25;;
48911;SDS011;34722;52.108;5.044;2022-09-29T14:51:36;4.13;;;3.13;;
48911;SDS011;34722;52.108;5.044;2022-09-29T14:59:33;3.03;;;2.45;;
48911;SDS011;34722;52.108;5.044;2022-09-29T15:02:20;5.18;;;2.00;;
48911;SDS011;34722;52.108;5.044;2022-09-29T15:04:49;3.47;;;2.10;;
48911;SDS011;34722;52.108;5.044;2022-09-29T15:07:17;2.67;;;2.00;;
48911;SDS011;34722;52.108;5.044;2022-09-29T15:09:52;1.60;;;1.25;;
48911;SDS011;34722;52.108;5.044;2022-09-29T15:12:21;2.08;;;1.88;;
48911;SDS011;34722;52.108;5.044;2022-09-29T15:14:54;1.50;;;1.40;;
48911;SDS011;34722;52.108;5.044;2022-09-29T15:25:39;1.05;;;0.90;;
48911;SDS011;34722;52.108;5.044;2022-09-29T15:28:16;0.88;;;0.60;;
48911;SDS011;34722;52.108;5.044;2022-09-29T15:30:47;1.17;;;1.00;;
48911;SDS011;34722;52.108;5.044;2022-09-29T15:33:20;2.38;;;0.90;;
48911;SDS011;34722;52.108;5.044;2022-09-29T15:35:50;1.83;;;1.00;;
48911;SDS011;34722;52.108;5.044;2022-09-29T15:38:28;0.98;;;0.80;;
48911;SDS011;34722;52.108;5.044;2022-09-29T15:40:58;0.98;;;0.82;;
48911;SDS011;34722;52.108;5.044;2022-09-29T15:46:18;0.82;;;0.73;;
48911;SDS011;34722;52.108;5.044;2022-09-29T15:49:20;1.60;;;1.20;;
48911;SDS011;34722;52.108;5.044;2022-09-29T15:51:55;0.95;;;0.90;;
48911;SDS011;34722;52.108;5.044;2022-09-29T15:54:33;0.88;;;0.80;;
48911;SDS011;34722;52.108;5.044;2022-09-29T15:59:47;0.63;;;0.63;;
48911;SDS011;34722;52.108;5.044;2022-09-29T16:02:19;1.15;;;0.90;;
48911;SDS011;34722;52.108;5.044;2022-09-29T16:04:47;0.80;;;0.80;;
48911;SDS011;34722;52.108;5.044;2022-09-29T16:07:20;3.00;;;1.10;;
48911;SDS011;34722;52.108;5.044;2022-09-29T16:09:51;1.17;;;0.82;;
48911;SDS011;34722;52.108;5.044;2022-09-29T16:12:21;1.10;;;0.90;;
48911;SDS011;34722;52.108;5.044;2022-09-29T16:14:47;1.25;;;1.15;;
48911;SDS011;34722;52.108;5.044;2022-09-29T16:17:17;1.17;;;0.88;;
48911;SDS011;34722;52.108;5.044;2022-09-29T16:19:44;2.15;;;0.90;;
48911;SDS011;34722;52.108;5.044;2022-09-29T16:22:15;0.98;;;0.90;;
48911;SDS011;34722;52.108;5.044;2022-09-29T16:24:52;0.60;;;0.60;;
48911;SDS011;34722;52.108;5.044;2022-09-29T16:30:27;2.88;;;0.75;;
48911;SDS011;34722;52.108;5.044;2022-09-29T16:32:57;1.17;;;0.98;;
48911;SDS011;34722;52.108;5.044;2022-09-29T16:35:52;0.85;;;0.70;;
48911;SDS011;34722;52.108;5.044;2022-09-29T16:41:18;1.67;;;1.05;;
48911;SDS011;34722;52.108;5.044;2022-09-29T16:46:43;0.77;;;0.50;;
48911;SDS011;34722;52.108;5.044;2022-09-29T16:49:16;1.08;;;0.70;;
48911;SDS011;34722;52.108;5.044;2022-09-29T16:51:50;0.65;;;0.55;;
48911;SDS011;34722;52.108;5.044;2022-09-29T16:54:22;1.08;;;0.50;;
48911;SDS011;34722;52.108;5.044;2022-09-29T16:59:42;0.82;;;0.75;;
48911;SDS011;34722;52.108;5.044;2022-09-29T17:02:09;1.88;;;0.60;;
48911;SDS011;34722;52.108;5.044;2022-09-29T17:04:38;1.63;;;0.50;;
48911;SDS011;34722;52.108;5.044;2022-09-29T17:07:04;2.67;;;0.63;;
48911;SDS011;34722;52.108;5.044;2022-09-29T17:09:32;1.67;;;0.70;;
48911;SDS011;34722;52.108;5.044;2022-09-29T17:11:58;0.85;;;0.63;;
48911;SDS011;34722;52.108;5.044;2022-09-29T17:14:24;1.77;;;1.15;;
48911;SDS011;34722;52.108;5.044;2022-09-29T17:16:50;2.10;;;0.90;;
48911;SDS011;34722;52.108;5.044;2022-09-29T17:19:17;1.65;;;0.80;;
48911;SDS011;34722;52.108;5.044;2022-09-29T17:21:44;1.02;;;0.93;;
48911;SDS011;34722;52.108;5.044;2022-09-29T17:24:10;3.50;;;1.33;;
48911;SDS011;34722;52.108;5.044;2022-09-29T17:26:40;0.82;;;0.82;;
48911;SDS011;34722;52.108;5.044;2022-09-29T17:29:27;1.95;;;0.80;;
48911;SDS011;34722;52.108;5.044;2022-09-29T17:31:53;2.38;;;1.20;;
48911;SDS011;34722;52.108;5.044;2022-09-29T17:34:19;2.53;;;0.80;;
48911;SDS011;34722;52.108;5.044;2022-09-29T17:36:49;1.98;;;1.02;;
48911;SDS011;34722;52.108;5.044;2022-09-29T17:39:16;2.55;;;1.20;;
48911;SDS011;34722;52.108;5.044;2022-09-29T17:41:41;4.78;;;1.67;;
48911;SDS011;34722;52.108;5.044;2022-09-29T17:44:07;1.52;;;1.30;;
48911;SDS011;34722;52.108;5.044;2022-09-29T17:46:33;1.80;;;1.27;;
48911;SDS011;34722;52.108;5.044;2022-09-29T17:49:01;2.13;;;1.35;;
48911;SDS011;34722;52.108;5.044;2022-09-29T17:51:27;2.35;;;1.75;;
48911;SDS011;34722;52.108;5.044;2022-09-29T17:53:59;3.22;;;1.67;;
48911;SDS011;34722;52.108;5.044;2022-09-29T17:56:25;1.73;;;1.40;;
48911;SDS011;34722;52.108;5.044;2022-09-29T17:58:51;2.30;;;2.10;;
48911;SDS011;34722;52.108;5.044;2022-09-29T18:01:18;4.97;;;2.47;;
48911;SDS011;34722;52.108;5.044;2022-09-29T18:03:51;2.90;;;1.92;;
48911;SDS011;34722;52.108;5.044;2022-09-29T18:06:21;8.00;;;4.10;;
48911;SDS011;34722;52.108;5.044;2022-09-29T18:08:59;2.80;;;2.30;;
48911;SDS011;34722;52.108;5.044;2022-09-29T18:11:25;5.07;;;2.65;;
48911;SDS011;34722;52.108;5.044;2022-09-29T18:13:51;4.63;;;2.70;;
48911;SDS011;34722;52.108;5.044;2022-09-29T18:16:18;6.00;;;3.10;;
48911;SDS011;34722;52.108;5.044;2022-09-29T18:18:47;8.88;;;3.67;;
48911;SDS011;34722;52.108;5.044;2022-09-29T18:21:15;6.60;;;3.58;;
48911;SDS011;34722;52.108;5.044;2022-09-29T18:23:44;6.93;;;3.60;;
48911;SDS011;34722;52.108;5.044;2022-09-29T18:26:10;7.57;;;3.85;;
48911;SDS011;34722;52.108;5.044;2022-09-29T18:28:38;9.48;;;4.07;;
48911;SDS011;34722;52.108;5.044;2022-09-29T18:31:07;7.85;;;4.25;;
48911;SDS011;34722;52.108;5.044;2022-09-29T18:33:41;8.63;;;4.53;;
48911;SDS011;34722;52.108;5.044;2022-09-29T18:36:07;9.73;;;4.95;;